Terminal Aerodrome Forecast
Issued by NWS

Home | Current Version | Previous Version | Text Only | Print | Product List | Glossary On
Versions: 1 2 3 4 5 6 7 8 9 10 11 12
000
FTUS45 KBOI 280520
TAFJER
TAF
KJER 280520Z 2806/2906 VRB06KT P6SM SKC
     FM282000 26011G18KT P6SM SKC
     FM290200 23008KT P6SM SKC=

USA.gov is the U.S. government's official web portal to all federal, state and local government web resources and services.